sensor_id;sensor_type;location;lat;lon;timestamp;P1;durP1;ratioP1;P2;durP2;ratioP2
13415;SDS011;6779;50.150;8.680;2022-12-07T00:03:36;18.67;;;9.70;;
13415;SDS011;6779;50.150;8.680;2022-12-07T00:06:04;17.77;;;9.70;;
13415;SDS011;6779;50.150;8.680;2022-12-07T00:08:31;20.37;;;9.70;;
13415;SDS011;6779;50.150;8.680;2022-12-07T00:11:04;19.20;;;9.70;;
13415;SDS011;6779;50.150;8.680;2022-12-07T00:13:31;20.57;;;9.57;;
13415;SDS011;6779;50.150;8.680;2022-12-07T00:16:08;20.53;;;10.30;;
13415;SDS011;6779;50.150;8.680;2022-12-07T00:18:38;19.73;;;9.67;;
13415;SDS011;6779;50.150;8.680;2022-12-07T00:21:14;19.27;;;10.90;;
13415;SDS011;6779;50.150;8.680;2022-12-07T00:23:44;17.90;;;10.17;;
13415;SDS011;6779;50.150;8.680;2022-12-07T00:26:13;19.37;;;10.20;;
13415;SDS011;6779;50.150;8.680;2022-12-07T00:28:40;15.03;;;8.93;;
13415;SDS011;6779;50.150;8.680;2022-12-07T00:31:11;18.83;;;9.73;;
13415;SDS011;6779;50.150;8.680;2022-12-07T00:33:38;19.60;;;9.93;;
13415;SDS011;6779;50.150;8.680;2022-12-07T00:36:08;18.00;;;9.30;;
13415;SDS011;6779;50.150;8.680;2022-12-07T00:38:36;18.53;;;10.30;;
13415;SDS011;6779;50.150;8.680;2022-12-07T00:41:03;17.30;;;8.60;;
13415;SDS011;6779;50.150;8.680;2022-12-07T00:43:30;17.07;;;9.37;;
13415;SDS011;6779;50.150;8.680;2022-12-07T00:45:56;21.40;;;9.90;;
13415;SDS011;6779;50.150;8.680;2022-12-07T00:48:23;17.50;;;10.00;;
13415;SDS011;6779;50.150;8.680;2022-12-07T00:50:49;18.27;;;9.83;;
13415;SDS011;6779;50.150;8.680;2022-12-07T00:53:15;18.10;;;9.73;;
13415;SDS011;6779;50.150;8.680;2022-12-07T00:55:41;18.60;;;9.13;;
13415;SDS011;6779;50.150;8.680;2022-12-07T00:58:07;18.27;;;9.27;;
13415;SDS011;6779;50.150;8.680;2022-12-07T01:00:32;20.00;;;9.77;;
13415;SDS011;6779;50.150;8.680;2022-12-07T01:03:00;15.17;;;8.57;;
13415;SDS011;6779;50.150;8.680;2022-12-07T01:05:25;19.30;;;9.83;;
13415;SDS011;6779;50.150;8.680;2022-12-07T01:07:51;17.77;;;9.47;;
13415;SDS011;6779;50.150;8.680;2022-12-07T01:10:16;19.30;;;8.77;;
13415;SDS011;6779;50.150;8.680;2022-12-07T01:12:42;15.77;;;9.03;;
13415;SDS011;6779;50.150;8.680;2022-12-07T01:15:08;19.33;;;9.73;;
13415;SDS011;6779;50.150;8.680;2022-12-07T01:17:34;16.13;;;8.83;;
13415;SDS011;6779;50.150;8.680;2022-12-07T01:19:59;23.33;;;9.97;;
13415;SDS011;6779;50.150;8.680;2022-12-07T01:22:25;17.07;;;9.17;;
13415;SDS011;6779;50.150;8.680;2022-12-07T01:24:51;17.27;;;9.10;;
13415;SDS011;6779;50.150;8.680;2022-12-07T01:27:16;19.50;;;9.63;;
13415;SDS011;6779;50.150;8.680;2022-12-07T01:29:42;19.10;;;8.93;;
13415;SDS011;6779;50.150;8.680;2022-12-07T01:32:07;15.43;;;8.80;;
13415;SDS011;6779;50.150;8.680;2022-12-07T01:34:33;17.57;;;8.90;;
13415;SDS011;6779;50.150;8.680;2022-12-07T01:36:58;18.10;;;8.53;;
13415;SDS011;6779;50.150;8.680;2022-12-07T01:39:24;13.07;;;7.87;;
13415;SDS011;6779;50.150;8.680;2022-12-07T01:41:50;14.77;;;9.23;;
13415;SDS011;6779;50.150;8.680;2022-12-07T01:44:20;18.43;;;9.70;;
13415;SDS011;6779;50.150;8.680;2022-12-07T01:46:50;18.17;;;8.93;;
13415;SDS011;6779;50.150;8.680;2022-12-07T01:49:20;15.77;;;8.93;;
13415;SDS011;6779;50.150;8.680;2022-12-07T01:52:25;19.10;;;9.27;;
13415;SDS011;6779;50.150;8.680;2022-12-07T01:54:57;20.03;;;10.47;;
13415;SDS011;6779;50.150;8.680;2022-12-07T01:57:26;18.10;;;8.90;;
13415;SDS011;6779;50.150;8.680;2022-12-07T01:59:52;17.27;;;8.63;;
13415;SDS011;6779;50.150;8.680;2022-12-07T02:02:30;14.37;;;8.03;;
13415;SDS011;6779;50.150;8.680;2022-12-07T02:05:06;17.10;;;8.73;;
13415;SDS011;6779;50.150;8.680;2022-12-07T02:07:32;14.37;;;8.67;;
13415;SDS011;6779;50.150;8.680;2022-12-07T02:12:44;19.03;;;9.70;;
13415;SDS011;6779;50.150;8.680;2022-12-07T02:15:12;18.03;;;8.77;;
13415;SDS011;6779;50.150;8.680;2022-12-07T02:17:42;14.90;;;7.93;;
13415;SDS011;6779;50.150;8.680;2022-12-07T02:20:14;18.23;;;8.47;;
13415;SDS011;6779;50.150;8.680;2022-12-07T02:22:54;16.07;;;8.10;;
13415;SDS011;6779;50.150;8.680;2022-12-07T02:28:33;14.10;;;8.00;;
13415;SDS011;6779;50.150;8.680;2022-12-07T02:31:02;16.07;;;8.47;;
13415;SDS011;6779;50.150;8.680;2022-12-07T02:33:36;17.60;;;9.10;;
13415;SDS011;6779;50.150;8.680;2022-12-07T02:36:11;16.47;;;7.67;;
13415;SDS011;6779;50.150;8.680;2022-12-07T02:38:46;15.63;;;7.60;;
13415;SDS011;6779;50.150;8.680;2022-12-07T02:41:22;15.23;;;8.30;;
13415;SDS011;6779;50.150;8.680;2022-12-07T02:44:00;15.83;;;8.17;;
13415;SDS011;6779;50.150;8.680;2022-12-07T02:46:30;19.13;;;9.07;;
13415;SDS011;6779;50.150;8.680;2022-12-07T02:48:59;15.43;;;8.37;;
13415;SDS011;6779;50.150;8.680;2022-12-07T02:51:29;15.37;;;7.40;;
13415;SDS011;6779;50.150;8.680;2022-12-07T02:53:55;17.57;;;7.80;;
13415;SDS011;6779;50.150;8.680;2022-12-07T03:04:46;16.07;;;7.27;;
13415;SDS011;6779;50.150;8.680;2022-12-07T03:07:24;15.47;;;7.90;;
13415;SDS011;6779;50.150;8.680;2022-12-07T03:13:28;15.10;;;7.30;;
13415;SDS011;6779;50.150;8.680;2022-12-07T03:16:17;16.37;;;7.33;;
13415;SDS011;6779;50.150;8.680;2022-12-07T03:18:48;17.63;;;8.07;;
13415;SDS011;6779;50.150;8.680;2022-12-07T03:21:43;14.67;;;7.57;;
13415;SDS011;6779;50.150;8.680;2022-12-07T03:24:15;14.77;;;7.00;;
13415;SDS011;6779;50.150;8.680;2022-12-07T03:26:47;18.80;;;7.43;;
13415;SDS011;6779;50.150;8.680;2022-12-07T03:29:34;15.07;;;6.73;;
13415;SDS011;6779;50.150;8.680;2022-12-07T03:32:13;10.53;;;6.90;;
13415;SDS011;6779;50.150;8.680;2022-12-07T03:34:46;13.03;;;6.47;;
13415;SDS011;6779;50.150;8.680;2022-12-07T03:37:20;14.53;;;6.73;;
13415;SDS011;6779;50.150;8.680;2022-12-07T03:42:32;14.80;;;7.13;;
13415;SDS011;6779;50.150;8.680;2022-12-07T03:44:58;13.70;;;7.50;;
13415;SDS011;6779;50.150;8.680;2022-12-07T03:47:33;14.57;;;7.17;;
13415;SDS011;6779;50.150;8.680;2022-12-07T03:52:53;14.93;;;7.43;;
13415;SDS011;6779;50.150;8.680;2022-12-07T03:55:46;16.37;;;7.20;;
13415;SDS011;6779;50.150;8.680;2022-12-07T03:58:15;15.00;;;6.50;;
13415;SDS011;6779;50.150;8.680;2022-12-07T04:00:43;11.37;;;6.63;;
13415;SDS011;6779;50.150;8.680;2022-12-07T04:03:10;15.13;;;6.90;;
13415;SDS011;6779;50.150;8.680;2022-12-07T04:05:36;13.53;;;7.13;;
13415;SDS011;6779;50.150;8.680;2022-12-07T04:08:03;12.70;;;6.77;;
13415;SDS011;6779;50.150;8.680;2022-12-07T04:10:28;12.50;;;7.00;;
13415;SDS011;6779;50.150;8.680;2022-12-07T04:12:54;14.13;;;6.37;;
13415;SDS011;6779;50.150;8.680;2022-12-07T04:15:20;11.40;;;6.40;;
13415;SDS011;6779;50.150;8.680;2022-12-07T04:17:46;11.10;;;6.20;;
13415;SDS011;6779;50.150;8.680;2022-12-07T04:20:12;15.80;;;5.90;;
13415;SDS011;6779;50.150;8.680;2022-12-07T04:22:37;11.33;;;6.30;;
13415;SDS011;6779;50.150;8.680;2022-12-07T04:25:03;12.67;;;7.03;;
13415;SDS011;6779;50.150;8.680;2022-12-07T04:27:29;11.57;;;5.90;;
13415;SDS011;6779;50.150;8.680;2022-12-07T04:29:54;10.67;;;6.67;;
13415;SDS011;6779;50.150;8.680;2022-12-07T04:32:20;12.23;;;6.80;;
13415;SDS011;6779;50.150;8.680;2022-12-07T04:34:46;11.13;;;6.13;;
13415;SDS011;6779;50.150;8.680;2022-12-07T04:37:12;11.57;;;6.07;;
13415;SDS011;6779;50.150;8.680;2022-12-07T04:39:37;11.90;;;6.23;;
13415;SDS011;6779;50.150;8.680;2022-12-07T04:42:03;10.70;;;6.13;;
13415;SDS011;6779;50.150;8.680;2022-12-07T04:44:29;13.30;;;6.30;;
13415;SDS011;6779;50.150;8.680;2022-12-07T04:46:55;13.03;;;6.67;;
13415;SDS011;6779;50.150;8.680;2022-12-07T04:49:21;11.20;;;5.90;;
13415;SDS011;6779;50.150;8.680;2022-12-07T04:51:47;11.60;;;6.03;;
13415;SDS011;6779;50.150;8.680;2022-12-07T04:54:14;10.63;;;6.27;;
13415;SDS011;6779;50.150;8.680;2022-12-07T04:56:40;17.00;;;6.93;;
13415;SDS011;6779;50.150;8.680;2022-12-07T04:59:06;9.47;;;6.33;;
13415;SDS011;6779;50.150;8.680;2022-12-07T05:01:32;12.00;;;6.00;;
13415;SDS011;6779;50.150;8.680;2022-12-07T05:03:59;11.10;;;6.70;;
13415;SDS011;6779;50.150;8.680;2022-12-07T05:06:24;11.53;;;5.90;;
13415;SDS011;6779;50.150;8.680;2022-12-07T05:08:50;10.20;;;5.60;;
13415;SDS011;6779;50.150;8.680;2022-12-07T05:11:16;11.80;;;6.47;;
13415;SDS011;6779;50.150;8.680;2022-12-07T05:14:01;11.10;;;5.77;;
13415;SDS011;6779;50.150;8.680;2022-12-07T05:16:28;10.43;;;6.13;;
13415;SDS011;6779;50.150;8.680;2022-12-07T05:18:54;10.63;;;5.97;;
13415;SDS011;6779;50.150;8.680;2022-12-07T05:21:19;11.50;;;5.93;;
13415;SDS011;6779;50.150;8.680;2022-12-07T05:23:45;14.30;;;6.57;;
13415;SDS011;6779;50.150;8.680;2022-12-07T05:26:10;18.13;;;8.27;;
13415;SDS011;6779;50.150;8.680;2022-12-07T05:28:36;14.63;;;7.07;;
13415;SDS011;6779;50.150;8.680;2022-12-07T05:31:01;14.20;;;7.43;;
13415;SDS011;6779;50.150;8.680;2022-12-07T05:33:27;11.23;;;6.63;;
13415;SDS011;6779;50.150;8.680;2022-12-07T05:35:52;13.33;;;6.80;;
13415;SDS011;6779;50.150;8.680;2022-12-07T05:38:18;11.80;;;6.60;;
13415;SDS011;6779;50.150;8.680;2022-12-07T05:40:43;13.77;;;7.17;;
13415;SDS011;6779;50.150;8.680;2022-12-07T05:43:09;14.93;;;6.33;;
13415;SDS011;6779;50.150;8.680;2022-12-07T05:45:35;13.77;;;6.07;;
13415;SDS011;6779;50.150;8.680;2022-12-07T05:48:01;13.37;;;6.67;;
13415;SDS011;6779;50.150;8.680;2022-12-07T05:50:27;11.90;;;6.43;;
13415;SDS011;6779;50.150;8.680;2022-12-07T05:52:53;13.30;;;7.03;;
13415;SDS011;6779;50.150;8.680;2022-12-07T05:55:18;12.30;;;6.90;;
13415;SDS011;6779;50.150;8.680;2022-12-07T05:57:44;11.67;;;6.53;;
13415;SDS011;6779;50.150;8.680;2022-12-07T06:00:30;12.30;;;6.03;;
13415;SDS011;6779;50.150;8.680;2022-12-07T06:02:56;13.97;;;7.30;;
13415;SDS011;6779;50.150;8.680;2022-12-07T06:05:21;16.10;;;7.50;;
13415;SDS011;6779;50.150;8.680;2022-12-07T06:07:47;13.53;;;6.93;;
13415;SDS011;6779;50.150;8.680;2022-12-07T06:10:15;15.10;;;7.07;;
13415;SDS011;6779;50.150;8.680;2022-12-07T06:12:41;12.87;;;6.73;;
13415;SDS011;6779;50.150;8.680;2022-12-07T06:15:08;14.07;;;7.63;;
13415;SDS011;6779;50.150;8.680;2022-12-07T06:17:34;16.13;;;6.97;;
13415;SDS011;6779;50.150;8.680;2022-12-07T06:20:00;16.17;;;7.93;;
13415;SDS011;6779;50.150;8.680;2022-12-07T06:22:25;13.87;;;7.30;;
13415;SDS011;6779;50.150;8.680;2022-12-07T06:24:51;15.87;;;7.70;;
13415;SDS011;6779;50.150;8.680;2022-12-07T06:27:16;12.43;;;7.20;;
13415;SDS011;6779;50.150;8.680;2022-12-07T06:29:42;14.60;;;7.50;;
13415;SDS011;6779;50.150;8.680;2022-12-07T06:32:08;18.47;;;8.47;;
13415;SDS011;6779;50.150;8.680;2022-12-07T06:34:34;15.50;;;7.93;;
13415;SDS011;6779;50.150;8.680;2022-12-07T06:36:59;17.57;;;7.57;;
13415;SDS011;6779;50.150;8.680;2022-12-07T06:39:25;12.30;;;7.33;;
13415;SDS011;6779;50.150;8.680;2022-12-07T06:41:52;17.30;;;8.50;;
13415;SDS011;6779;50.150;8.680;2022-12-07T06:44:18;15.17;;;8.50;;
13415;SDS011;6779;50.150;8.680;2022-12-07T06:46:45;16.47;;;7.97;;
13415;SDS011;6779;50.150;8.680;2022-12-07T06:49:11;14.33;;;8.17;;
13415;SDS011;6779;50.150;8.680;2022-12-07T06:51:36;17.60;;;8.10;;
13415;SDS011;6779;50.150;8.680;2022-12-07T06:54:06;13.67;;;8.40;;
13415;SDS011;6779;50.150;8.680;2022-12-07T06:56:36;15.40;;;7.87;;
13415;SDS011;6779;50.150;8.680;2022-12-07T06:59:02;14.23;;;7.90;;
13415;SDS011;6779;50.150;8.680;2022-12-07T07:01:30;12.80;;;7.07;;
13415;SDS011;6779;50.150;8.680;2022-12-07T07:03:55;17.47;;;7.63;;
13415;SDS011;6779;50.150;8.680;2022-12-07T07:06:21;12.53;;;7.37;;
13415;SDS011;6779;50.150;8.680;2022-12-07T07:08:46;11.77;;;7.13;;
13415;SDS011;6779;50.150;8.680;2022-12-07T07:11:12;14.57;;;8.33;;
13415;SDS011;6779;50.150;8.680;2022-12-07T07:13:37;16.20;;;8.43;;
13415;SDS011;6779;50.150;8.680;2022-12-07T07:16:03;16.63;;;7.50;;
13415;SDS011;6779;50.150;8.680;2022-12-07T07:18:29;14.77;;;7.93;;
13415;SDS011;6779;50.150;8.680;2022-12-07T07:20:55;17.00;;;8.40;;
13415;SDS011;6779;50.150;8.680;2022-12-07T07:23:21;15.10;;;7.50;;
13415;SDS011;6779;50.150;8.680;2022-12-07T07:25:47;15.17;;;8.03;;
13415;SDS011;6779;50.150;8.680;2022-12-07T07:28:12;16.33;;;8.90;;
13415;SDS011;6779;50.150;8.680;2022-12-07T07:30:38;12.93;;;7.33;;
13415;SDS011;6779;50.150;8.680;2022-12-07T07:33:04;15.70;;;7.70;;
13415;SDS011;6779;50.150;8.680;2022-12-07T07:35:30;15.80;;;8.20;;
13415;SDS011;6779;50.150;8.680;2022-12-07T07:37:57;12.83;;;7.77;;
13415;SDS011;6779;50.150;8.680;2022-12-07T07:40:23;16.77;;;8.27;;
13415;SDS011;6779;50.150;8.680;2022-12-07T07:42:53;14.73;;;8.10;;
13415;SDS011;6779;50.150;8.680;2022-12-07T07:45:19;11.90;;;7.40;;
13415;SDS011;6779;50.150;8.680;2022-12-07T07:47:46;13.80;;;7.40;;
13415;SDS011;6779;50.150;8.680;2022-12-07T07:50:12;14.33;;;7.77;;
13415;SDS011;6779;50.150;8.680;2022-12-07T07:52:38;14.57;;;7.30;;
13415;SDS011;6779;50.150;8.680;2022-12-07T07:55:04;11.93;;;6.87;;
13415;SDS011;6779;50.150;8.680;2022-12-07T07:57:30;14.57;;;7.20;;
13415;SDS011;6779;50.150;8.680;2022-12-07T07:59:56;13.90;;;6.90;;
13415;SDS011;6779;50.150;8.680;2022-12-07T08:02:21;12.30;;;6.43;;
13415;SDS011;6779;50.150;8.680;2022-12-07T08:04:47;12.70;;;6.80;;
13415;SDS011;6779;50.150;8.680;2022-12-07T08:07:13;11.50;;;6.43;;
13415;SDS011;6779;50.150;8.680;2022-12-07T08:09:39;11.73;;;7.10;;
13415;SDS011;6779;50.150;8.680;2022-12-07T08:12:05;13.13;;;7.23;;
13415;SDS011;6779;50.150;8.680;2022-12-07T08:14:31;12.80;;;6.40;;
13415;SDS011;6779;50.150;8.680;2022-12-07T08:16:57;11.97;;;6.87;;
13415;SDS011;6779;50.150;8.680;2022-12-07T08:19:22;15.40;;;7.60;;
13415;SDS011;6779;50.150;8.680;2022-12-07T08:21:48;14.23;;;7.13;;
13415;SDS011;6779;50.150;8.680;2022-12-07T08:24:13;9.30;;;6.37;;
13415;SDS011;6779;50.150;8.680;2022-12-07T08:26:39;11.57;;;6.70;;
13415;SDS011;6779;50.150;8.680;2022-12-07T08:29:05;14.50;;;6.73;;
13415;SDS011;6779;50.150;8.680;2022-12-07T08:31:31;10.27;;;6.50;;
13415;SDS011;6779;50.150;8.680;2022-12-07T08:33:57;13.13;;;6.30;;
13415;SDS011;6779;50.150;8.680;2022-12-07T08:36:22;10.23;;;6.57;;
13415;SDS011;6779;50.150;8.680;2022-12-07T08:38:48;9.27;;;5.80;;
13415;SDS011;6779;50.150;8.680;2022-12-07T08:41:14;9.53;;;6.03;;
13415;SDS011;6779;50.150;8.680;2022-12-07T08:43:40;8.33;;;5.50;;
13415;SDS011;6779;50.150;8.680;2022-12-07T08:46:08;9.23;;;5.90;;
13415;SDS011;6779;50.150;8.680;2022-12-07T08:48:46;9.73;;;6.10;;
13415;SDS011;6779;50.150;8.680;2022-12-07T08:51:15;11.57;;;5.97;;
13415;SDS011;6779;50.150;8.680;2022-12-07T08:53:41;10.93;;;6.40;;
13415;SDS011;6779;50.150;8.680;2022-12-07T08:56:08;9.47;;;6.07;;
13415;SDS011;6779;50.150;8.680;2022-12-07T08:58:34;10.73;;;6.00;;
13415;SDS011;6779;50.150;8.680;2022-12-07T09:01:02;12.80;;;5.90;;
13415;SDS011;6779;50.150;8.680;2022-12-07T09:03:27;9.07;;;5.53;;
13415;SDS011;6779;50.150;8.680;2022-12-07T09:05:53;10.13;;;5.37;;
13415;SDS011;6779;50.150;8.680;2022-12-07T09:08:19;7.77;;;4.97;;
13415;SDS011;6779;50.150;8.680;2022-12-07T09:10:47;8.53;;;5.10;;
13415;SDS011;6779;50.150;8.680;2022-12-07T09:13:13;7.83;;;4.93;;
13415;SDS011;6779;50.150;8.680;2022-12-07T09:15:38;8.87;;;5.37;;
13415;SDS011;6779;50.150;8.680;2022-12-07T09:18:04;7.87;;;5.10;;
13415;SDS011;6779;50.150;8.680;2022-12-07T09:20:30;8.10;;;5.20;;
13415;SDS011;6779;50.150;8.680;2022-12-07T09:22:55;8.03;;;5.23;;
13415;SDS011;6779;50.150;8.680;2022-12-07T09:25:21;8.60;;;5.20;;
13415;SDS011;6779;50.150;8.680;2022-12-07T09:27:47;8.83;;;5.57;;
13415;SDS011;6779;50.150;8.680;2022-12-07T09:30:12;8.80;;;5.07;;
13415;SDS011;6779;50.150;8.680;2022-12-07T09:32:38;7.57;;;5.17;;
13415;SDS011;6779;50.150;8.680;2022-12-07T09:35:04;8.00;;;4.87;;
13415;SDS011;6779;50.150;8.680;2022-12-07T09:37:29;7.17;;;5.03;;
13415;SDS011;6779;50.150;8.680;2022-12-07T09:39:59;7.87;;;5.53;;
13415;SDS011;6779;50.150;8.680;2022-12-07T09:42:30;9.97;;;5.27;;
13415;SDS011;6779;50.150;8.680;2022-12-07T09:45:00;12.27;;;5.40;;
13415;SDS011;6779;50.150;8.680;2022-12-07T09:47:29;8.53;;;5.27;;
13415;SDS011;6779;50.150;8.680;2022-12-07T09:49:55;7.50;;;4.53;;
13415;SDS011;6779;50.150;8.680;2022-12-07T09:52:27;8.27;;;4.50;;
13415;SDS011;6779;50.150;8.680;2022-12-07T09:54:54;8.53;;;4.57;;
13415;SDS011;6779;50.150;8.680;2022-12-07T09:57:23;5.97;;;4.43;;
13415;SDS011;6779;50.150;8.680;2022-12-07T09:59:59;9.27;;;5.70;;
13415;SDS011;6779;50.150;8.680;2022-12-07T10:02:34;10.43;;;5.73;;
13415;SDS011;6779;50.150;8.680;2022-12-07T10:05:03;7.70;;;5.13;;
13415;SDS011;6779;50.150;8.680;2022-12-07T10:07:37;10.17;;;5.93;;
13415;SDS011;6779;50.150;8.680;2022-12-07T10:10:03;9.67;;;5.37;;
13415;SDS011;6779;50.150;8.680;2022-12-07T10:20:59;6.20;;;4.17;;
13415;SDS011;6779;50.150;8.680;2022-12-07T10:23:27;6.40;;;4.00;;
13415;SDS011;6779;50.150;8.680;2022-12-07T10:25:53;4.27;;;3.50;;
13415;SDS011;6779;50.150;8.680;2022-12-07T10:28:20;4.80;;;3.40;;
13415;SDS011;6779;50.150;8.680;2022-12-07T10:33:28;4.87;;;3.00;;
13415;SDS011;6779;50.150;8.680;2022-12-07T10:35:56;4.27;;;2.93;;
13415;SDS011;6779;50.150;8.680;2022-12-07T10:38:22;4.00;;;3.30;;
13415;SDS011;6779;50.150;8.680;2022-12-07T10:40:51;6.37;;;3.47;;
13415;SDS011;6779;50.150;8.680;2022-12-07T10:43:29;4.13;;;2.67;;
13415;SDS011;6779;50.150;8.680;2022-12-07T10:48:57;2.90;;;2.53;;
13415;SDS011;6779;50.150;8.680;2022-12-07T11:05:27;4.23;;;2.50;;
13415;SDS011;6779;50.150;8.680;2022-12-07T11:16:21;3.70;;;1.97;;
13415;SDS011;6779;50.150;8.680;2022-12-07T11:21:58;4.90;;;2.43;;
13415;SDS011;6779;50.150;8.680;2022-12-07T11:24:57;8.27;;;2.50;;
13415;SDS011;6779;50.150;8.680;2022-12-07T11:27:37;3.77;;;2.43;;
13415;SDS011;6779;50.150;8.680;2022-12-07T11:30:17;3.07;;;2.73;;
13415;SDS011;6779;50.150;8.680;2022-12-07T11:35:34;4.67;;;2.80;;
13415;SDS011;6779;50.150;8.680;2022-12-07T11:38:14;4.63;;;2.60;;
13415;SDS011;6779;50.150;8.680;2022-12-07T11:40:43;2.90;;;2.47;;
13415;SDS011;6779;50.150;8.680;2022-12-07T11:43:24;3.53;;;2.53;;
13415;SDS011;6779;50.150;8.680;2022-12-07T11:46:00;3.33;;;2.50;;
13415;SDS011;6779;50.150;8.680;2022-12-07T11:48:35;6.33;;;2.47;;
13415;SDS011;6779;50.150;8.680;2022-12-07T11:51:07;7.57;;;2.53;;
13415;SDS011;6779;50.150;8.680;2022-12-07T11:53:44;4.93;;;3.03;;
13415;SDS011;6779;50.150;8.680;2022-12-07T11:56:19;5.57;;;2.30;;
13415;SDS011;6779;50.150;8.680;2022-12-07T12:03:45;2.30;;;2.10;;
13415;SDS011;6779;50.150;8.680;2022-12-07T12:06:13;4.63;;;1.80;;
13415;SDS011;6779;50.150;8.680;2022-12-07T12:08:40;2.77;;;2.00;;
13415;SDS011;6779;50.150;8.680;2022-12-07T12:16:48;3.40;;;2.00;;
13415;SDS011;6779;50.150;8.680;2022-12-07T12:19:33;4.87;;;1.90;;
13415;SDS011;6779;50.150;8.680;2022-12-07T12:22:16;4.03;;;2.20;;
13415;SDS011;6779;50.150;8.680;2022-12-07T12:24:45;3.90;;;2.10;;
13415;SDS011;6779;50.150;8.680;2022-12-07T12:27:26;5.17;;;2.13;;
13415;SDS011;6779;50.150;8.680;2022-12-07T12:29:56;3.40;;;1.87;;
13415;SDS011;6779;50.150;8.680;2022-12-07T12:32:29;3.93;;;2.10;;
13415;SDS011;6779;50.150;8.680;2022-12-07T12:37:52;3.83;;;1.87;;
13415;SDS011;6779;50.150;8.680;2022-12-07T12:42:53;2.57;;;1.90;;
13415;SDS011;6779;50.150;8.680;2022-12-07T12:47:59;3.73;;;1.83;;
13415;SDS011;6779;50.150;8.680;2022-12-07T12:58:32;2.00;;;1.80;;
13415;SDS011;6779;50.150;8.680;2022-12-07T13:03:55;1.80;;;1.20;;
13415;SDS011;6779;50.150;8.680;2022-12-07T13:08:51;2.70;;;1.57;;
13415;SDS011;6779;50.150;8.680;2022-12-07T13:11:36;1.37;;;1.27;;
13415;SDS011;6779;50.150;8.680;2022-12-07T13:17:12;4.10;;;1.20;;
13415;SDS011;6779;50.150;8.680;2022-12-07T13:19:58;2.10;;;1.57;;
13415;SDS011;6779;50.150;8.680;2022-12-07T13:25:08;3.93;;;1.73;;
13415;SDS011;6779;50.150;8.680;2022-12-07T13:27:56;2.90;;;1.67;;
13415;SDS011;6779;50.150;8.680;2022-12-07T13:30:38;3.23;;;1.40;;
13415;SDS011;6779;50.150;8.680;2022-12-07T13:33:11;3.07;;;2.23;;
13415;SDS011;6779;50.150;8.680;2022-12-07T13:35:38;2.30;;;2.00;;
13415;SDS011;6779;50.150;8.680;2022-12-07T13:38:05;2.93;;;1.73;;
13415;SDS011;6779;50.150;8.680;2022-12-07T13:40:40;4.93;;;1.80;;
13415;SDS011;6779;50.150;8.680;2022-12-07T13:43:12;3.43;;;2.17;;
13415;SDS011;6779;50.150;8.680;2022-12-07T13:45:40;3.83;;;1.87;;
13415;SDS011;6779;50.150;8.680;2022-12-07T13:48:23;3.20;;;1.87;;
13415;SDS011;6779;50.150;8.680;2022-12-07T13:50:56;1.87;;;1.50;;
13415;SDS011;6779;50.150;8.680;2022-12-07T13:53:23;1.97;;;1.53;;
13415;SDS011;6779;50.150;8.680;2022-12-07T13:55:49;2.70;;;1.40;;
13415;SDS011;6779;50.150;8.680;2022-12-07T13:58:15;1.60;;;1.30;;
13415;SDS011;6779;50.150;8.680;2022-12-07T14:00:41;2.53;;;1.20;;
13415;SDS011;6779;50.150;8.680;2022-12-07T14:05:36;2.33;;;1.60;;
13415;SDS011;6779;50.150;8.680;2022-12-07T14:12:55;2.00;;;1.73;;
13415;SDS011;6779;50.150;8.680;2022-12-07T14:15:23;3.47;;;1.80;;
13415;SDS011;6779;50.150;8.680;2022-12-07T14:17:54;1.67;;;1.57;;
13415;SDS011;6779;50.150;8.680;2022-12-07T14:20:30;2.47;;;1.90;;
13415;SDS011;6779;50.150;8.680;2022-12-07T14:23:03;3.80;;;2.20;;
13415;SDS011;6779;50.150;8.680;2022-12-07T14:25:45;2.10;;;1.77;;
13415;SDS011;6779;50.150;8.680;2022-12-07T14:28:31;4.27;;;2.03;;
13415;SDS011;6779;50.150;8.680;2022-12-07T14:30:57;4.47;;;2.43;;
13415;SDS011;6779;50.150;8.680;2022-12-07T14:33:24;5.23;;;2.30;;
13415;SDS011;6779;50.150;8.680;2022-12-07T14:35:50;4.07;;;2.53;;
13415;SDS011;6779;50.150;8.680;2022-12-07T14:38:19;3.13;;;1.70;;
13415;SDS011;6779;50.150;8.680;2022-12-07T14:40:45;3.50;;;2.10;;
13415;SDS011;6779;50.150;8.680;2022-12-07T14:43:11;4.53;;;1.60;;
13415;SDS011;6779;50.150;8.680;2022-12-07T14:45:39;3.37;;;1.90;;
13415;SDS011;6779;50.150;8.680;2022-12-07T14:48:05;2.33;;;1.53;;
13415;SDS011;6779;50.150;8.680;2022-12-07T14:50:35;2.30;;;1.60;;
13415;SDS011;6779;50.150;8.680;2022-12-07T14:53:06;3.33;;;1.50;;
13415;SDS011;6779;50.150;8.680;2022-12-07T14:55:37;2.87;;;1.43;;
13415;SDS011;6779;50.150;8.680;2022-12-07T14:58:03;2.80;;;1.50;;
13415;SDS011;6779;50.150;8.680;2022-12-07T15:00:28;2.70;;;1.63;;
13415;SDS011;6779;50.150;8.680;2022-12-07T15:02:54;3.90;;;1.67;;
13415;SDS011;6779;50.150;8.680;2022-12-07T15:05:21;4.80;;;1.70;;
13415;SDS011;6779;50.150;8.680;2022-12-07T15:07:47;4.93;;;2.20;;
13415;SDS011;6779;50.150;8.680;2022-12-07T15:10:18;3.67;;;2.03;;
13415;SDS011;6779;50.150;8.680;2022-12-07T15:12:54;2.47;;;1.93;;
13415;SDS011;6779;50.150;8.680;2022-12-07T15:15:49;2.13;;;1.70;;
13415;SDS011;6779;50.150;8.680;2022-12-07T15:18:16;3.40;;;1.87;;
13415;SDS011;6779;50.150;8.680;2022-12-07T15:20:42;4.87;;;2.30;;
13415;SDS011;6779;50.150;8.680;2022-12-07T15:23:08;2.13;;;1.80;;
13415;SDS011;6779;50.150;8.680;2022-12-07T15:25:35;2.40;;;1.37;;
13415;SDS011;6779;50.150;8.680;2022-12-07T15:28:00;5.13;;;2.00;;
13415;SDS011;6779;50.150;8.680;2022-12-07T15:30:27;7.20;;;2.03;;
13415;SDS011;6779;50.150;8.680;2022-12-07T15:32:52;3.37;;;1.60;;
13415;SDS011;6779;50.150;8.680;2022-12-07T15:35:18;4.20;;;1.57;;
13415;SDS011;6779;50.150;8.680;2022-12-07T15:37:44;5.07;;;1.80;;
13415;SDS011;6779;50.150;8.680;2022-12-07T15:40:10;3.17;;;1.90;;
13415;SDS011;6779;50.150;8.680;2022-12-07T15:42:36;5.63;;;2.10;;
13415;SDS011;6779;50.150;8.680;2022-12-07T15:45:03;7.00;;;2.57;;
13415;SDS011;6779;50.150;8.680;2022-12-07T15:47:30;21.87;;;7.73;;
13415;SDS011;6779;50.150;8.680;2022-12-07T15:49:57;12.87;;;4.17;;
13415;SDS011;6779;50.150;8.680;2022-12-07T15:52:22;6.17;;;2.70;;
13415;SDS011;6779;50.150;8.680;2022-12-07T15:54:48;3.57;;;2.00;;
13415;SDS011;6779;50.150;8.680;2022-12-07T15:57:14;5.27;;;2.00;;
13415;SDS011;6779;50.150;8.680;2022-12-07T15:59:39;5.93;;;2.30;;
13415;SDS011;6779;50.150;8.680;2022-12-07T16:02:05;4.07;;;2.07;;
13415;SDS011;6779;50.150;8.680;2022-12-07T16:04:30;5.13;;;2.53;;
13415;SDS011;6779;50.150;8.680;2022-12-07T16:06:56;2.93;;;2.20;;
13415;SDS011;6779;50.150;8.680;2022-12-07T16:09:22;5.57;;;2.40;;
13415;SDS011;6779;50.150;8.680;2022-12-07T16:11:47;3.37;;;2.43;;
13415;SDS011;6779;50.150;8.680;2022-12-07T16:14:15;3.83;;;2.50;;
13415;SDS011;6779;50.150;8.680;2022-12-07T16:16:41;4.63;;;2.20;;
13415;SDS011;6779;50.150;8.680;2022-12-07T16:19:06;4.87;;;2.33;;
13415;SDS011;6779;50.150;8.680;2022-12-07T16:21:33;4.90;;;2.47;;
13415;SDS011;6779;50.150;8.680;2022-12-07T16:24:00;3.03;;;2.03;;
13415;SDS011;6779;50.150;8.680;2022-12-07T16:26:26;3.33;;;2.43;;
13415;SDS011;6779;50.150;8.680;2022-12-07T16:28:52;2.57;;;2.00;;
13415;SDS011;6779;50.150;8.680;2022-12-07T16:31:20;4.70;;;1.87;;
13415;SDS011;6779;50.150;8.680;2022-12-07T16:33:47;3.17;;;2.13;;
13415;SDS011;6779;50.150;8.680;2022-12-07T16:36:14;2.57;;;1.70;;
13415;SDS011;6779;50.150;8.680;2022-12-07T16:38:41;5.20;;;2.50;;
13415;SDS011;6779;50.150;8.680;2022-12-07T16:41:07;4.20;;;1.80;;
13415;SDS011;6779;50.150;8.680;2022-12-07T16:43:34;4.30;;;2.17;;
13415;SDS011;6779;50.150;8.680;2022-12-07T16:46:00;3.50;;;2.33;;
13415;SDS011;6779;50.150;8.680;2022-12-07T16:48:26;4.67;;;2.83;;
13415;SDS011;6779;50.150;8.680;2022-12-07T16:50:52;3.87;;;2.30;;
13415;SDS011;6779;50.150;8.680;2022-12-07T16:53:19;5.87;;;2.10;;
13415;SDS011;6779;50.150;8.680;2022-12-07T16:55:48;3.40;;;2.20;;